createdAt,value
2018-05-10T00:01:20.964Z,21.20
2018-05-10T00:06:11.992Z,21.11
2018-05-10T00:11:03.121Z,21.04
2018-05-10T00:15:54.139Z,21.02
2018-05-10T00:20:45.137Z,20.97
2018-05-10T00:25:36.186Z,20.88
2018-05-10T00:30:27.178Z,20.83
2018-05-10T00:35:18.240Z,20.81
2018-05-10T00:40:09.261Z,20.75
2018-05-10T00:45:00.292Z,20.67
2018-05-10T00:49:51.386Z,20.65
2018-05-10T00:54:53.682Z,20.64
2018-05-10T00:59:44.684Z,20.62
2018-05-10T01:04:35.710Z,20.60
2018-05-10T01:09:26.718Z,20.53
2018-05-10T01:14:18.631Z,20.52
2018-05-10T01:19:09.667Z,20.51
2018-05-10T01:24:00.680Z,20.53
2018-05-10T01:28:51.704Z,20.50
2018-05-10T01:33:42.755Z,20.49
2018-05-10T01:38:34.528Z,20.50
2018-05-10T01:43:25.564Z,20.49
2018-05-10T01:48:16.603Z,20.53
2018-05-10T01:53:07.668Z,20.54
2018-05-10T01:57:59.431Z,20.51
2018-05-10T02:02:50.720Z,20.52
2018-05-10T02:07:42.496Z,20.54
2018-05-10T02:12:33.591Z,20.57
2018-05-10T02:17:25.355Z,20.53
2018-05-10T02:22:16.456Z,20.41
2018-05-10T02:27:07.462Z,20.34
2018-05-10T02:31:58.525Z,20.29
2018-05-10T02:36:49.548Z,20.21
2018-05-10T02:41:40.570Z,20.20
2018-05-10T02:46:31.612Z,20.18
2018-05-10T02:51:22.627Z,20.16
2018-05-10T02:56:13.678Z,20.13
2018-05-10T03:01:04.709Z,20.13
2018-05-10T03:05:55.772Z,20.04
2018-05-10T03:10:47.533Z,20.03
2018-05-10T03:15:38.629Z,20.03
2018-05-10T03:20:30.401Z,20.00
2018-05-10T03:25:21.476Z,20.02
2018-05-10T03:30:12.483Z,20.03
2018-05-10T03:35:03.551Z,20.01
2018-05-10T03:39:55.305Z,19.98
2018-05-10T03:44:46.370Z,19.97
2018-05-10T03:49:37.400Z,19.89
2018-05-10T03:54:28.524Z,19.87
2018-05-10T03:59:19.528Z,19.88
2018-05-10T04:04:31.977Z,19.89
2018-05-10T04:09:41.762Z,19.90
2018-05-10T04:14:33.538Z,19.86
2018-05-10T04:19:24.559Z,19.84
2018-05-10T04:24:16.829Z,19.83
2018-05-10T04:29:07.859Z,19.82
2018-05-10T04:33:58.982Z,19.78
2018-05-10T04:38:50.009Z,19.76
2018-05-10T04:43:41.036Z,19.77
2018-05-10T04:48:32.054Z,19.72
2018-05-10T04:53:24.246Z,19.70
2018-05-10T04:58:16.049Z,19.74
2018-05-10T05:03:07.064Z,19.84
2018-05-10T05:07:58.083Z,19.90
2018-05-10T05:12:49.121Z,19.92
2018-05-10T05:17:40.181Z,19.93
2018-05-10T05:22:31.236Z,19.94
2018-05-10T05:27:22.272Z,19.90
2018-05-10T05:32:13.294Z,19.95
2018-05-10T05:37:04.329Z,19.99
2018-05-10T05:41:55.390Z,20.00
2018-05-10T05:46:47.160Z,20.04
2018-05-10T05:51:38.353Z,20.08
2018-05-10T05:56:30.116Z,20.18
2018-05-10T06:01:21.139Z,20.25
2018-05-10T06:06:12.141Z,20.29
2018-05-10T06:11:03.985Z,20.27
2018-05-10T06:15:55.817Z,20.29
2018-05-10T06:20:46.768Z,20.34
2018-05-10T06:25:37.794Z,20.44
2018-05-10T06:30:28.866Z,20.49
2018-05-10T06:35:19.876Z,20.58
2018-05-10T06:40:10.913Z,20.63
2018-05-10T06:45:01.909Z,20.64
2018-05-10T06:49:52.929Z,20.67
2018-05-10T06:54:44.023Z,20.65
2018-05-10T06:59:35.055Z,20.72
2018-05-10T07:04:26.084Z,20.83
2018-05-10T07:09:17.130Z,20.95
2018-05-10T07:14:08.205Z,21.03
2018-05-10T07:18:59.956Z,21.16
2018-05-10T07:23:50.968Z,21.26
2018-05-10T07:28:42.730Z,21.47
2018-05-10T07:33:33.784Z,21.68
2018-05-10T07:38:24.836Z,21.70
2018-05-10T07:43:15.870Z,21.93
2018-05-10T07:48:07.644Z,22.47
2018-05-10T07:52:58.748Z,22.82
2018-05-10T07:57:49.781Z,23.61
2018-05-10T08:02:40.823Z,24.60
2018-05-10T08:07:31.921Z,24.80
2018-05-10T08:12:22.929Z,25.14
2018-05-10T08:17:14.790Z,25.66
2018-05-10T08:22:05.813Z,26.79
2018-05-10T08:26:56.919Z,27.99
2018-05-10T08:31:48.708Z,28.81
2018-05-10T08:36:39.731Z,28.64
2018-05-10T08:41:30.757Z,28.46
2018-05-10T08:46:21.793Z,27.67
2018-05-10T08:51:12.824Z,27.28
2018-05-10T08:56:03.912Z,28.11
2018-05-10T09:00:54.946Z,28.87
2018-05-10T09:05:45.968Z,29.67
2018-05-10T09:10:36.984Z,30.24
2018-05-10T09:15:28.019Z,30.62
2018-05-10T09:20:19.139Z,31.00
2018-05-10T09:25:10.854Z,31.19
2018-05-10T09:30:01.924Z,31.41
2018-05-10T09:34:52.945Z,31.58
2018-05-10T09:39:43.999Z,31.79
2018-05-10T09:44:35.769Z,31.47
2018-05-10T09:49:26.779Z,31.74
2018-05-10T09:54:17.792Z,32.13
2018-05-10T09:59:09.552Z,32.21
2018-05-10T10:04:00.575Z,31.99
2018-05-10T10:08:51.633Z,31.90
2018-05-10T10:13:42.660Z,31.91
2018-05-10T10:18:33.704Z,31.84
2018-05-10T10:23:24.709Z,32.26
2018-05-10T10:28:15.730Z,32.09
2018-05-10T10:33:06.775Z,31.59
2018-05-10T10:37:57.804Z,31.50
2018-05-10T10:42:49.597Z,31.97
2018-05-10T10:47:40.648Z,32.40
2018-05-10T10:52:31.729Z,32.43
2018-05-10T10:57:22.755Z,32.09
2018-05-10T11:02:13.882Z,32.52
2018-05-10T11:07:04.919Z,32.49
2018-05-10T11:11:55.952Z,32.12
2018-05-10T11:16:46.988Z,31.55
2018-05-10T11:21:38.032Z,30.88
2018-05-10T11:26:29.797Z,31.09
2018-05-10T11:31:20.843Z,30.63
2018-05-10T11:36:11.945Z,31.11
2018-05-10T11:41:02.942Z,31.02
2018-05-10T11:45:54.707Z,30.97
2018-05-10T11:50:45.728Z,30.71
2018-05-10T11:55:36.794Z,30.01
2018-05-10T12:00:27.824Z,29.52
2018-05-10T12:05:18.888Z,29.91
2018-05-10T12:10:10.652Z,30.37
2018-05-10T12:15:01.684Z,30.07
2018-05-10T12:19:52.713Z,30.18
2018-05-10T12:24:43.760Z,30.54
2018-05-10T12:29:34.772Z,30.65
2018-05-10T12:34:25.852Z,30.44
2018-05-10T12:39:16.913Z,30.30
2018-05-10T12:44:07.951Z,30.25
2018-05-10T12:48:59.008Z,30.48
2018-05-10T12:53:50.773Z,30.79
2018-05-10T12:58:41.803Z,30.68
2018-05-10T13:03:32.843Z,30.34
2018-05-10T13:08:23.938Z,29.86
2018-05-10T13:13:14.977Z,29.79
2018-05-10T13:18:05.996Z,29.72
2018-05-10T13:22:57.036Z,29.84
2018-05-10T13:27:48.080Z,29.75
2018-05-10T13:32:39.159Z,29.53
2018-05-10T13:37:30.207Z,29.44
2018-05-10T13:42:21.236Z,29.30
2018-05-10T13:47:12.393Z,29.51
2018-05-10T13:52:04.062Z,29.46
2018-05-10T13:56:55.076Z,29.75
2018-05-10T14:01:46.101Z,29.84
2018-05-10T14:06:37.176Z,30.06
2018-05-10T14:11:28.287Z,30.22
2018-05-10T14:16:19.375Z,30.01
2018-05-10T14:21:10.394Z,29.68
2018-05-10T14:26:01.430Z,29.50
2018-05-10T14:30:52.505Z,29.55
2018-05-10T14:35:43.546Z,29.53
2018-05-10T14:40:35.313Z,29.32
2018-05-10T14:45:26.384Z,29.50
2018-05-10T14:50:17.426Z,29.48
2018-05-10T14:55:09.209Z,29.39
2018-05-10T15:00:00.281Z,29.31
2018-05-10T15:04:51.296Z,29.30
2018-05-10T15:09:42.361Z,29.30
2018-05-10T15:14:33.379Z,29.31
2018-05-10T15:19:24.430Z,29.32
2018-05-10T15:24:15.475Z,29.22
2018-05-10T15:29:06.631Z,29.20
2018-05-10T15:33:57.654Z,29.18
2018-05-10T15:38:48.680Z,29.18
2018-05-10T15:43:40.445Z,29.17
2018-05-10T15:48:31.478Z,29.09
2018-05-10T15:53:22.517Z,28.83
2018-05-10T15:58:13.545Z,28.56
2018-05-10T16:03:04.729Z,28.48
2018-05-10T16:07:56.492Z,28.29
2018-05-10T16:12:47.519Z,28.02
2018-05-10T16:17:39.361Z,27.86
2018-05-10T16:22:30.382Z,27.70
2018-05-10T16:27:21.406Z,27.72
2018-05-10T16:32:12.490Z,27.68
2018-05-10T16:37:04.289Z,27.54
2018-05-10T16:41:55.334Z,27.26
2018-05-10T16:46:46.381Z,27.14
2018-05-10T16:51:38.221Z,26.73
2018-05-10T16:56:29.984Z,26.59
2018-05-10T17:01:21.029Z,26.50
2018-05-10T17:06:12.055Z,26.39
2018-05-10T17:11:03.180Z,26.17
2018-05-10T17:15:54.277Z,26.09
2018-05-10T17:20:45.292Z,26.21
2018-05-10T17:25:37.032Z,26.17
2018-05-10T17:30:28.857Z,25.90
2018-05-10T17:35:20.653Z,25.72
2018-05-10T17:40:11.735Z,25.69
2018-05-10T17:45:02.730Z,25.73
2018-05-10T17:49:53.787Z,25.62
2018-05-10T17:54:44.816Z,25.61
2018-05-10T17:59:35.848Z,25.71
2018-05-10T18:04:26.876Z,25.72
2018-05-10T18:09:19.020Z,25.72
2018-05-10T18:14:10.071Z,25.53
2018-05-10T18:19:01.153Z,25.37
2018-05-10T18:23:52.173Z,24.51
2018-05-10T18:28:43.244Z,23.96
2018-05-10T18:33:34.317Z,23.89
2018-05-10T18:38:26.095Z,23.82
2018-05-10T18:43:17.123Z,23.64
2018-05-10T18:48:08.178Z,23.70
2018-05-10T18:52:59.220Z,23.71
2018-05-10T18:57:52.325Z,23.65
2018-05-10T19:02:43.452Z,23.59
2018-05-10T19:07:34.500Z,23.54
2018-05-10T19:12:26.178Z,23.54
2018-05-10T19:17:18.576Z,23.55
2018-05-10T19:22:09.827Z,23.34
2018-05-10T19:27:01.653Z,22.86
2018-05-10T19:31:53.068Z,22.71
2018-05-10T19:36:44.128Z,22.44
2018-05-10T19:41:35.734Z,22.48
2018-05-10T19:46:28.120Z,22.52
2018-05-10T19:51:19.239Z,22.63
2018-05-10T19:56:10.269Z,22.65
2018-05-10T20:01:01.284Z,22.58
2018-05-10T20:05:52.329Z,22.51
2018-05-10T20:10:43.368Z,22.45
2018-05-10T20:15:35.153Z,22.31
2018-05-10T20:20:26.204Z,22.23
2018-05-10T20:25:18.284Z,22.09
2018-05-10T20:30:10.072Z,22.00
2018-05-10T20:35:01.890Z,21.90
2018-05-10T20:39:52.911Z,21.91
2018-05-10T20:44:44.033Z,21.99
2018-05-10T20:49:35.045Z,22.02
2018-05-10T20:54:26.070Z,21.99
2018-05-10T20:59:17.104Z,22.00
2018-05-10T21:04:08.163Z,21.92
2018-05-10T21:08:59.240Z,21.79
2018-05-10T21:13:50.283Z,21.68
2018-05-10T21:18:41.298Z,21.55
2018-05-10T21:23:32.322Z,21.49
2018-05-10T21:28:23.412Z,21.36
2018-05-10T21:33:15.160Z,21.26
2018-05-10T21:38:06.951Z,21.17
2018-05-10T21:42:59.051Z,21.07
2018-05-10T21:47:50.129Z,20.99
2018-05-10T21:52:41.146Z,20.95
2018-05-10T21:57:32.168Z,20.87
2018-05-10T22:02:23.193Z,20.85
2018-05-10T22:07:14.252Z,20.75
2018-05-10T22:12:06.025Z,20.67
2018-05-10T22:16:57.058Z,20.57
2018-05-10T22:21:48.099Z,20.38
2018-05-10T22:26:39.295Z,20.35
2018-05-10T22:31:30.333Z,20.13
2018-05-10T22:36:21.358Z,20.16
2018-05-10T22:41:12.412Z,20.15
2018-05-10T22:46:03.442Z,20.05
2018-05-10T22:50:55.226Z,19.86
2018-05-10T22:55:46.244Z,19.79
2018-05-10T23:00:37.285Z,19.66
2018-05-10T23:05:30.320Z,19.50
2018-05-10T23:10:22.083Z,19.49
2018-05-10T23:15:13.122Z,19.49
2018-05-10T23:20:04.274Z,19.45
2018-05-10T23:24:55.303Z,19.34
2018-05-10T23:29:46.321Z,19.23
2018-05-10T23:34:37.353Z,19.18
2018-05-10T23:39:28.367Z,19.21
2018-05-10T23:44:20.896Z,19.09
2018-05-10T23:49:11.933Z,18.97
2018-05-10T23:54:02.954Z,18.89
2018-05-10T23:58:54.032Z,18.85
